sensor_id;sensor_type;location;lat;lon;timestamp;P1;durP1;ratioP1;P2;durP2;ratioP2
13475;SDS011;6810;63.824;20.288;2024-01-11T00:01:28;0.07;;;0.00;;
13475;SDS011;6810;63.824;20.288;2024-01-11T00:04:15;0.43;;;0.10;;
13475;SDS011;6810;63.824;20.288;2024-01-11T00:07:02;0.10;;;0.10;;
13475;SDS011;6810;63.824;20.288;2024-01-11T00:09:49;1.60;;;0.17;;
13475;SDS011;6810;63.824;20.288;2024-01-11T00:12:36;0.17;;;0.00;;
13475;SDS011;6810;63.824;20.288;2024-01-11T00:15:23;0.00;;;0.00;;
13475;SDS011;6810;63.824;20.288;2024-01-11T00:18:10;0.07;;;0.03;;
13475;SDS011;6810;63.824;20.288;2024-01-11T00:20:57;0.00;;;0.00;;
13475;SDS011;6810;63.824;20.288;2024-01-11T00:23:44;0.00;;;0.00;;
13475;SDS011;6810;63.824;20.288;2024-01-11T00:26:31;0.00;;;0.00;;
13475;SDS011;6810;63.824;20.288;2024-01-11T00:29:18;0.20;;;0.00;;
13475;SDS011;6810;63.824;20.288;2024-01-11T00:32:05;0.00;;;0.00;;
13475;SDS011;6810;63.824;20.288;2024-01-11T00:34:52;0.87;;;0.10;;
13475;SDS011;6810;63.824;20.288;2024-01-11T00:37:38;0.20;;;0.00;;
13475;SDS011;6810;63.824;20.288;2024-01-11T00:40:25;0.00;;;0.00;;
13475;SDS011;6810;63.824;20.288;2024-01-11T00:43:12;0.10;;;0.00;;
13475;SDS011;6810;63.824;20.288;2024-01-11T00:45:59;0.10;;;0.00;;
13475;SDS011;6810;63.824;20.288;2024-01-11T00:48:46;0.53;;;0.00;;
13475;SDS011;6810;63.824;20.288;2024-01-11T00:51:33;0.10;;;0.00;;
13475;SDS011;6810;63.824;20.288;2024-01-11T00:54:20;0.33;;;0.03;;
13475;SDS011;6810;63.824;20.288;2024-01-11T00:57:07;0.00;;;0.00;;
13475;SDS011;6810;63.824;20.288;2024-01-11T00:59:54;1.30;;;0.17;;
13475;SDS011;6810;63.824;20.288;2024-01-11T01:02:41;0.10;;;0.00;;
13475;SDS011;6810;63.824;20.288;2024-01-11T01:05:28;0.00;;;0.00;;
13475;SDS011;6810;63.824;20.288;2024-01-11T01:08:15;0.00;;;0.00;;
13475;SDS011;6810;63.824;20.288;2024-01-11T01:11:02;0.00;;;0.00;;
13475;SDS011;6810;63.824;20.288;2024-01-11T01:13:49;0.30;;;0.00;;
13475;SDS011;6810;63.824;20.288;2024-01-11T01:16:36;0.13;;;0.00;;
13475;SDS011;6810;63.824;20.288;2024-01-11T01:19:23;0.60;;;0.00;;
13475;SDS011;6810;63.824;20.288;2024-01-11T01:22:10;0.20;;;0.00;;
13475;SDS011;6810;63.824;20.288;2024-01-11T01:24:57;0.00;;;0.00;;
13475;SDS011;6810;63.824;20.288;2024-01-11T01:27:44;0.60;;;0.00;;
13475;SDS011;6810;63.824;20.288;2024-01-11T01:30:31;0.63;;;0.00;;
13475;SDS011;6810;63.824;20.288;2024-01-11T01:33:18;0.10;;;0.00;;
13475;SDS011;6810;63.824;20.288;2024-01-11T01:36:07;0.10;;;0.00;;
13475;SDS011;6810;63.824;20.288;2024-01-11T01:38:56;0.33;;;0.00;;
13475;SDS011;6810;63.824;20.288;2024-01-11T01:41:43;0.03;;;0.03;;
13475;SDS011;6810;63.824;20.288;2024-01-11T01:44:29;0.00;;;0.00;;
13475;SDS011;6810;63.824;20.288;2024-01-11T01:47:16;0.00;;;0.00;;
13475;SDS011;6810;63.824;20.288;2024-01-11T01:50:05;0.00;;;0.00;;
13475;SDS011;6810;63.824;20.288;2024-01-11T01:52:53;0.03;;;0.00;;
13475;SDS011;6810;63.824;20.288;2024-01-11T01:55:42;0.43;;;0.10;;
13475;SDS011;6810;63.824;20.288;2024-01-11T01:58:29;0.10;;;0.00;;
13475;SDS011;6810;63.824;20.288;2024-01-11T02:01:16;0.00;;;0.00;;
13475;SDS011;6810;63.824;20.288;2024-01-11T02:04:05;0.00;;;0.00;;
13475;SDS011;6810;63.824;20.288;2024-01-11T02:06:52;0.00;;;0.00;;
13475;SDS011;6810;63.824;20.288;2024-01-11T02:09:40;0.00;;;0.00;;
13475;SDS011;6810;63.824;20.288;2024-01-11T02:12:27;0.10;;;0.00;;
13475;SDS011;6810;63.824;20.288;2024-01-11T02:15:15;0.00;;;0.00;;
13475;SDS011;6810;63.824;20.288;2024-01-11T02:18:02;0.00;;;0.00;;
13475;SDS011;6810;63.824;20.288;2024-01-11T02:20:49;0.00;;;0.00;;
13475;SDS011;6810;63.824;20.288;2024-01-11T02:23:37;0.40;;;0.00;;
13475;SDS011;6810;63.824;20.288;2024-01-11T02:26:29;0.70;;;0.10;;
13475;SDS011;6810;63.824;20.288;2024-01-11T02:29:17;0.30;;;0.10;;
13475;SDS011;6810;63.824;20.288;2024-01-11T02:32:03;0.10;;;0.00;;
13475;SDS011;6810;63.824;20.288;2024-01-11T02:34:51;0.20;;;0.00;;
13475;SDS011;6810;63.824;20.288;2024-01-11T02:37:38;0.83;;;0.10;;
13475;SDS011;6810;63.824;20.288;2024-01-11T02:40:25;0.17;;;0.00;;
13475;SDS011;6810;63.824;20.288;2024-01-11T02:43:13;0.03;;;0.00;;
13475;SDS011;6810;63.824;20.288;2024-01-11T02:46:00;0.00;;;0.00;;
13475;SDS011;6810;63.824;20.288;2024-01-11T02:48:46;0.30;;;0.07;;
13475;SDS011;6810;63.824;20.288;2024-01-11T02:51:33;0.10;;;0.07;;
13475;SDS011;6810;63.824;20.288;2024-01-11T02:54:20;0.00;;;0.00;;
13475;SDS011;6810;63.824;20.288;2024-01-11T02:57:07;0.00;;;0.00;;
13475;SDS011;6810;63.824;20.288;2024-01-11T02:59:54;0.00;;;0.00;;
13475;SDS011;6810;63.824;20.288;2024-01-11T03:02:41;0.00;;;0.00;;
13475;SDS011;6810;63.824;20.288;2024-01-11T03:05:28;0.00;;;0.00;;
13475;SDS011;6810;63.824;20.288;2024-01-11T03:08:15;0.00;;;0.00;;
13475;SDS011;6810;63.824;20.288;2024-01-11T03:11:02;0.10;;;0.00;;
13475;SDS011;6810;63.824;20.288;2024-01-11T03:13:49;0.10;;;0.00;;
13475;SDS011;6810;63.824;20.288;2024-01-11T03:16:36;0.00;;;0.00;;
13475;SDS011;6810;63.824;20.288;2024-01-11T03:19:23;0.20;;;0.17;;
13475;SDS011;6810;63.824;20.288;2024-01-11T03:22:11;0.00;;;0.00;;
13475;SDS011;6810;63.824;20.288;2024-01-11T03:24:58;0.00;;;0.00;;
13475;SDS011;6810;63.824;20.288;2024-01-11T03:27:45;0.10;;;0.00;;
13475;SDS011;6810;63.824;20.288;2024-01-11T03:30:32;0.10;;;0.00;;
13475;SDS011;6810;63.824;20.288;2024-01-11T03:33:19;0.00;;;0.00;;
13475;SDS011;6810;63.824;20.288;2024-01-11T03:36:07;1.07;;;0.00;;
13475;SDS011;6810;63.824;20.288;2024-01-11T03:38:54;0.00;;;0.00;;
13475;SDS011;6810;63.824;20.288;2024-01-11T03:41:44;0.00;;;0.00;;
13475;SDS011;6810;63.824;20.288;2024-01-11T03:44:31;0.00;;;0.00;;
13475;SDS011;6810;63.824;20.288;2024-01-11T03:47:18;0.13;;;0.00;;
13475;SDS011;6810;63.824;20.288;2024-01-11T03:50:05;0.20;;;0.00;;
13475;SDS011;6810;63.824;20.288;2024-01-11T03:52:52;0.60;;;0.10;;
13475;SDS011;6810;63.824;20.288;2024-01-11T03:55:39;0.00;;;0.00;;
13475;SDS011;6810;63.824;20.288;2024-01-11T03:58:26;0.20;;;0.00;;
13475;SDS011;6810;63.824;20.288;2024-01-11T04:01:13;0.00;;;0.00;;
13475;SDS011;6810;63.824;20.288;2024-01-11T04:03:41;0.00;;;0.00;;
13475;SDS011;6810;63.824;20.288;2024-01-11T04:06:08;0.93;;;0.00;;
13475;SDS011;6810;63.824;20.288;2024-01-11T04:08:35;0.00;;;0.00;;
13475;SDS011;6810;63.824;20.288;2024-01-11T04:11:03;1.30;;;0.30;;
13475;SDS011;6810;63.824;20.288;2024-01-11T04:13:33;0.10;;;0.10;;
13475;SDS011;6810;63.824;20.288;2024-01-11T04:16:03;0.30;;;0.00;;
13475;SDS011;6810;63.824;20.288;2024-01-11T04:18:31;0.30;;;0.00;;
13475;SDS011;6810;63.824;20.288;2024-01-11T04:20:59;0.20;;;0.10;;
13475;SDS011;6810;63.824;20.288;2024-01-11T04:23:26;0.10;;;0.10;;
13475;SDS011;6810;63.824;20.288;2024-01-11T04:25:53;0.30;;;0.10;;
13475;SDS011;6810;63.824;20.288;2024-01-11T04:28:20;0.30;;;0.10;;
13475;SDS011;6810;63.824;20.288;2024-01-11T04:30:47;0.50;;;0.07;;
13475;SDS011;6810;63.824;20.288;2024-01-11T04:33:14;0.00;;;0.00;;
13475;SDS011;6810;63.824;20.288;2024-01-11T04:35:41;0.00;;;0.00;;
13475;SDS011;6810;63.824;20.288;2024-01-11T04:38:08;0.00;;;0.00;;
13475;SDS011;6810;63.824;20.288;2024-01-11T04:40:35;0.17;;;0.00;;
13475;SDS011;6810;63.824;20.288;2024-01-11T04:43:02;0.80;;;0.10;;
13475;SDS011;6810;63.824;20.288;2024-01-11T04:45:29;0.20;;;0.00;;
13475;SDS011;6810;63.824;20.288;2024-01-11T04:47:56;0.00;;;0.00;;
13475;SDS011;6810;63.824;20.288;2024-01-11T04:50:23;0.00;;;0.00;;
13475;SDS011;6810;63.824;20.288;2024-01-11T04:52:50;0.27;;;0.03;;
13475;SDS011;6810;63.824;20.288;2024-01-11T04:55:17;1.30;;;0.00;;
13475;SDS011;6810;63.824;20.288;2024-01-11T04:57:44;0.00;;;0.00;;
13475;SDS011;6810;63.824;20.288;2024-01-11T05:00:11;0.00;;;0.00;;
13475;SDS011;6810;63.824;20.288;2024-01-11T05:02:38;0.00;;;0.00;;
13475;SDS011;6810;63.824;20.288;2024-01-11T05:05:05;0.10;;;0.00;;
13475;SDS011;6810;63.824;20.288;2024-01-11T05:07:32;0.00;;;0.00;;
13475;SDS011;6810;63.824;20.288;2024-01-11T05:10:01;0.00;;;0.00;;
13475;SDS011;6810;63.824;20.288;2024-01-11T05:12:28;0.00;;;0.00;;
13475;SDS011;6810;63.824;20.288;2024-01-11T05:14:55;0.53;;;0.00;;
13475;SDS011;6810;63.824;20.288;2024-01-11T05:17:22;0.10;;;0.00;;
13475;SDS011;6810;63.824;20.288;2024-01-11T05:19:49;0.50;;;0.30;;
13475;SDS011;6810;63.824;20.288;2024-01-11T05:22:16;1.30;;;0.30;;
13475;SDS011;6810;63.824;20.288;2024-01-11T05:24:44;0.90;;;0.30;;
13475;SDS011;6810;63.824;20.288;2024-01-11T05:27:11;0.17;;;0.10;;
13475;SDS011;6810;63.824;20.288;2024-01-11T05:29:38;0.03;;;0.00;;
13475;SDS011;6810;63.824;20.288;2024-01-11T05:32:05;0.00;;;0.00;;
13475;SDS011;6810;63.824;20.288;2024-01-11T05:34:32;0.00;;;0.00;;
13475;SDS011;6810;63.824;20.288;2024-01-11T05:36:59;0.00;;;0.00;;
13475;SDS011;6810;63.824;20.288;2024-01-11T05:39:26;0.50;;;0.00;;
13475;SDS011;6810;63.824;20.288;2024-01-11T05:41:53;0.30;;;0.00;;
13475;SDS011;6810;63.824;20.288;2024-01-11T05:44:40;0.87;;;0.03;;
13475;SDS011;6810;63.824;20.288;2024-01-11T05:47:27;0.00;;;0.00;;
13475;SDS011;6810;63.824;20.288;2024-01-11T05:50:14;0.10;;;0.00;;
13475;SDS011;6810;63.824;20.288;2024-01-11T05:53:01;0.70;;;0.00;;
13475;SDS011;6810;63.824;20.288;2024-01-11T05:55:48;0.10;;;0.10;;
13475;SDS011;6810;63.824;20.288;2024-01-11T05:58:35;0.50;;;0.07;;
13475;SDS011;6810;63.824;20.288;2024-01-11T06:01:25;0.93;;;0.00;;
13475;SDS011;6810;63.824;20.288;2024-01-11T06:04:12;0.10;;;0.00;;
13475;SDS011;6810;63.824;20.288;2024-01-11T06:06:59;0.03;;;0.00;;
13475;SDS011;6810;63.824;20.288;2024-01-11T06:09:46;0.03;;;0.00;;
13475;SDS011;6810;63.824;20.288;2024-01-11T06:12:33;0.20;;;0.00;;
13475;SDS011;6810;63.824;20.288;2024-01-11T06:15:20;0.00;;;0.00;;
13475;SDS011;6810;63.824;20.288;2024-01-11T06:18:06;0.00;;;0.00;;
13475;SDS011;6810;63.824;20.288;2024-01-11T06:20:53;0.00;;;0.00;;
13475;SDS011;6810;63.824;20.288;2024-01-11T06:23:40;0.77;;;0.10;;
13475;SDS011;6810;63.824;20.288;2024-01-11T06:26:27;0.00;;;0.00;;
13475;SDS011;6810;63.824;20.288;2024-01-11T06:29:14;0.03;;;0.00;;
13475;SDS011;6810;63.824;20.288;2024-01-11T06:32:01;0.10;;;0.10;;
13475;SDS011;6810;63.824;20.288;2024-01-11T06:34:48;0.10;;;0.10;;
13475;SDS011;6810;63.824;20.288;2024-01-11T06:37:35;0.10;;;0.07;;
13475;SDS011;6810;63.824;20.288;2024-01-11T06:40:22;0.10;;;0.10;;
13475;SDS011;6810;63.824;20.288;2024-01-11T06:43:09;0.47;;;0.00;;
13475;SDS011;6810;63.824;20.288;2024-01-11T06:45:56;0.07;;;0.00;;
13475;SDS011;6810;63.824;20.288;2024-01-11T06:48:48;0.60;;;0.10;;
13475;SDS011;6810;63.824;20.288;2024-01-11T06:51:35;0.00;;;0.00;;
13475;SDS011;6810;63.824;20.288;2024-01-11T06:54:22;0.27;;;0.10;;
13475;SDS011;6810;63.824;20.288;2024-01-11T06:57:09;0.00;;;0.00;;
13475;SDS011;6810;63.824;20.288;2024-01-11T06:59:56;0.00;;;0.00;;
13475;SDS011;6810;63.824;20.288;2024-01-11T07:02:43;0.30;;;0.00;;
13475;SDS011;6810;63.824;20.288;2024-01-11T07:05:30;0.17;;;0.10;;
13475;SDS011;6810;63.824;20.288;2024-01-11T07:08:17;0.10;;;0.10;;
13475;SDS011;6810;63.824;20.288;2024-01-11T07:11:04;0.57;;;0.10;;
13475;SDS011;6810;63.824;20.288;2024-01-11T07:13:51;0.10;;;0.10;;
13475;SDS011;6810;63.824;20.288;2024-01-11T07:16:38;0.00;;;0.00;;
13475;SDS011;6810;63.824;20.288;2024-01-11T07:19:25;1.57;;;0.40;;
13475;SDS011;6810;63.824;20.288;2024-01-11T07:22:12;0.10;;;0.10;;
13475;SDS011;6810;63.824;20.288;2024-01-11T07:24:59;0.00;;;0.00;;
13475;SDS011;6810;63.824;20.288;2024-01-11T07:27:45;0.60;;;0.10;;
13475;SDS011;6810;63.824;20.288;2024-01-11T07:30:32;0.30;;;0.10;;
13475;SDS011;6810;63.824;20.288;2024-01-11T07:33:20;0.10;;;0.03;;
13475;SDS011;6810;63.824;20.288;2024-01-11T07:36:07;0.20;;;0.10;;
13475;SDS011;6810;63.824;20.288;2024-01-11T07:38:54;1.07;;;0.10;;
13475;SDS011;6810;63.824;20.288;2024-01-11T07:41:56;0.57;;;0.20;;
13475;SDS011;6810;63.824;20.288;2024-01-11T07:44:43;0.33;;;0.00;;
13475;SDS011;6810;63.824;20.288;2024-01-11T07:47:30;0.30;;;0.10;;
13475;SDS011;6810;63.824;20.288;2024-01-11T07:50:18;0.10;;;0.10;;
13475;SDS011;6810;63.824;20.288;2024-01-11T07:53:05;0.10;;;0.10;;
13475;SDS011;6810;63.824;20.288;2024-01-11T07:55:52;1.03;;;0.13;;
13475;SDS011;6810;63.824;20.288;2024-01-11T07:58:19;0.20;;;0.10;;
13475;SDS011;6810;63.824;20.288;2024-01-11T08:01:05;0.33;;;0.07;;
13475;SDS011;6810;63.824;20.288;2024-01-11T08:03:52;0.50;;;0.00;;
13475;SDS011;6810;63.824;20.288;2024-01-11T08:06:39;0.00;;;0.00;;
13475;SDS011;6810;63.824;20.288;2024-01-11T08:09:26;0.10;;;0.00;;
13475;SDS011;6810;63.824;20.288;2024-01-11T08:12:16;0.00;;;0.00;;
13475;SDS011;6810;63.824;20.288;2024-01-11T08:15:03;0.23;;;0.10;;
13475;SDS011;6810;63.824;20.288;2024-01-11T08:17:51;0.20;;;0.10;;
13475;SDS011;6810;63.824;20.288;2024-01-11T08:20:38;0.13;;;0.10;;
13475;SDS011;6810;63.824;20.288;2024-01-11T08:23:25;0.73;;;0.10;;
13475;SDS011;6810;63.824;20.288;2024-01-11T08:26:13;0.23;;;0.10;;
13475;SDS011;6810;63.824;20.288;2024-01-11T08:29:03;0.20;;;0.20;;
13475;SDS011;6810;63.824;20.288;2024-01-11T08:31:50;0.20;;;0.20;;
13475;SDS011;6810;63.824;20.288;2024-01-11T08:34:54;0.20;;;0.10;;
13475;SDS011;6810;63.824;20.288;2024-01-11T08:37:41;0.70;;;0.00;;
13475;SDS011;6810;63.824;20.288;2024-01-11T08:40:28;0.93;;;0.10;;
13475;SDS011;6810;63.824;20.288;2024-01-11T08:43:15;0.23;;;0.10;;
13475;SDS011;6810;63.824;20.288;2024-01-11T08:46:02;0.90;;;0.10;;
13475;SDS011;6810;63.824;20.288;2024-01-11T08:48:49;1.40;;;0.63;;
13475;SDS011;6810;63.824;20.288;2024-01-11T08:51:36;0.10;;;0.10;;
13475;SDS011;6810;63.824;20.288;2024-01-11T08:54:23;0.47;;;0.33;;
13475;SDS011;6810;63.824;20.288;2024-01-11T08:57:10;0.30;;;0.07;;
13475;SDS011;6810;63.824;20.288;2024-01-11T08:59:56;0.97;;;0.10;;
13475;SDS011;6810;63.824;20.288;2024-01-11T09:02:44;0.13;;;0.10;;
13475;SDS011;6810;63.824;20.288;2024-01-11T09:05:32;0.13;;;0.10;;
13475;SDS011;6810;63.824;20.288;2024-01-11T09:08:19;1.23;;;0.13;;
13475;SDS011;6810;63.824;20.288;2024-01-11T09:11:05;0.70;;;0.20;;
13475;SDS011;6810;63.824;20.288;2024-01-11T09:13:52;0.10;;;0.10;;
13475;SDS011;6810;63.824;20.288;2024-01-11T09:16:39;0.87;;;0.20;;
13475;SDS011;6810;63.824;20.288;2024-01-11T09:19:26;0.50;;;0.27;;
13475;SDS011;6810;63.824;20.288;2024-01-11T09:22:13;0.10;;;0.10;;
13475;SDS011;6810;63.824;20.288;2024-01-11T09:25:00;0.17;;;0.10;;
13475;SDS011;6810;63.824;20.288;2024-01-11T09:27:47;0.17;;;0.10;;
13475;SDS011;6810;63.824;20.288;2024-01-11T09:30:34;0.30;;;0.10;;
13475;SDS011;6810;63.824;20.288;2024-01-11T09:33:21;0.50;;;0.10;;
13475;SDS011;6810;63.824;20.288;2024-01-11T09:36:08;0.47;;;0.10;;
13475;SDS011;6810;63.824;20.288;2024-01-11T09:38:55;0.30;;;0.20;;
13475;SDS011;6810;63.824;20.288;2024-01-11T09:41:42;0.23;;;0.10;;
13475;SDS011;6810;63.824;20.288;2024-01-11T09:44:44;0.30;;;0.10;;
13475;SDS011;6810;63.824;20.288;2024-01-11T09:47:33;0.43;;;0.10;;
13475;SDS011;6810;63.824;20.288;2024-01-11T09:50:22;0.20;;;0.20;;
13475;SDS011;6810;63.824;20.288;2024-01-11T09:53:10;0.73;;;0.10;;
13475;SDS011;6810;63.824;20.288;2024-01-11T09:55:58;0.73;;;0.10;;
13475;SDS011;6810;63.824;20.288;2024-01-11T09:58:46;1.90;;;0.20;;
13475;SDS011;6810;63.824;20.288;2024-01-11T10:01:38;0.63;;;0.20;;
13475;SDS011;6810;63.824;20.288;2024-01-11T10:04:25;0.10;;;0.10;;
13475;SDS011;6810;63.824;20.288;2024-01-11T10:07:12;0.47;;;0.23;;
13475;SDS011;6810;63.824;20.288;2024-01-11T10:10:00;0.73;;;0.10;;
13475;SDS011;6810;63.824;20.288;2024-01-11T10:12:47;0.27;;;0.10;;
13475;SDS011;6810;63.824;20.288;2024-01-11T10:15:34;1.03;;;0.30;;
13475;SDS011;6810;63.824;20.288;2024-01-11T10:18:21;0.43;;;0.20;;
13475;SDS011;6810;63.824;20.288;2024-01-11T10:20:50;0.20;;;0.17;;
13475;SDS011;6810;63.824;20.288;2024-01-11T10:23:37;0.60;;;0.20;;
13475;SDS011;6810;63.824;20.288;2024-01-11T10:26:24;0.23;;;0.20;;
13475;SDS011;6810;63.824;20.288;2024-01-11T10:29:11;0.17;;;0.10;;
13475;SDS011;6810;63.824;20.288;2024-01-11T10:31:58;0.30;;;0.10;;
13475;SDS011;6810;63.824;20.288;2024-01-11T10:34:45;0.20;;;0.10;;
13475;SDS011;6810;63.824;20.288;2024-01-11T10:37:32;0.20;;;0.10;;
13475;SDS011;6810;63.824;20.288;2024-01-11T10:40:19;0.30;;;0.20;;
13475;SDS011;6810;63.824;20.288;2024-01-11T10:43:07;0.10;;;0.10;;
13475;SDS011;6810;63.824;20.288;2024-01-11T10:45:59;0.40;;;0.10;;
13475;SDS011;6810;63.824;20.288;2024-01-11T10:48:46;0.77;;;0.10;;
13475;SDS011;6810;63.824;20.288;2024-01-11T10:51:38;0.53;;;0.10;;
13475;SDS011;6810;63.824;20.288;2024-01-11T10:54:06;1.90;;;0.20;;
13475;SDS011;6810;63.824;20.288;2024-01-11T10:56:54;0.87;;;0.10;;
13475;SDS011;6810;63.824;20.288;2024-01-11T10:59:42;0.10;;;0.10;;
13475;SDS011;6810;63.824;20.288;2024-01-11T11:02:30;0.60;;;0.10;;
13475;SDS011;6810;63.824;20.288;2024-01-11T11:05:21;0.10;;;0.10;;
13475;SDS011;6810;63.824;20.288;2024-01-11T11:08:08;0.10;;;0.10;;
13475;SDS011;6810;63.824;20.288;2024-01-11T11:10:57;1.00;;;0.20;;
13475;SDS011;6810;63.824;20.288;2024-01-11T11:13:46;0.47;;;0.20;;
13475;SDS011;6810;63.824;20.288;2024-01-11T11:16:34;0.17;;;0.10;;
13475;SDS011;6810;63.824;20.288;2024-01-11T11:19:21;0.20;;;0.10;;
13475;SDS011;6810;63.824;20.288;2024-01-11T11:22:08;0.10;;;0.10;;
13475;SDS011;6810;63.824;20.288;2024-01-11T11:25:02;1.23;;;0.00;;
13475;SDS011;6810;63.824;20.288;2024-01-11T11:27:50;0.20;;;0.10;;
13475;SDS011;6810;63.824;20.288;2024-01-11T11:30:37;0.10;;;0.10;;
13475;SDS011;6810;63.824;20.288;2024-01-11T11:33:24;0.47;;;0.10;;
13475;SDS011;6810;63.824;20.288;2024-01-11T11:36:12;0.73;;;0.10;;
13475;SDS011;6810;63.824;20.288;2024-01-11T11:38:59;0.30;;;0.10;;
13475;SDS011;6810;63.824;20.288;2024-01-11T11:41:47;0.93;;;0.33;;
13475;SDS011;6810;63.824;20.288;2024-01-11T11:44:34;0.23;;;0.03;;
13475;SDS011;6810;63.824;20.288;2024-01-11T11:47:22;0.20;;;0.00;;
13475;SDS011;6810;63.824;20.288;2024-01-11T11:50:10;0.20;;;0.13;;
13475;SDS011;6810;63.824;20.288;2024-01-11T11:52:58;1.03;;;0.10;;
13475;SDS011;6810;63.824;20.288;2024-01-11T11:55:45;0.70;;;0.17;;
13475;SDS011;6810;63.824;20.288;2024-01-11T11:58:34;0.30;;;0.10;;
13475;SDS011;6810;63.824;20.288;2024-01-11T12:01:21;0.10;;;0.10;;
13475;SDS011;6810;63.824;20.288;2024-01-11T12:04:08;0.63;;;0.30;;
13475;SDS011;6810;63.824;20.288;2024-01-11T12:06:55;0.30;;;0.10;;
13475;SDS011;6810;63.824;20.288;2024-01-11T12:09:42;0.20;;;0.10;;
13475;SDS011;6810;63.824;20.288;2024-01-11T12:12:29;0.83;;;0.17;;
13475;SDS011;6810;63.824;20.288;2024-01-11T12:15:17;0.30;;;0.10;;
13475;SDS011;6810;63.824;20.288;2024-01-11T12:18:04;0.33;;;0.20;;
13475;SDS011;6810;63.824;20.288;2024-01-11T12:20:51;0.97;;;0.10;;
13475;SDS011;6810;63.824;20.288;2024-01-11T12:23:42;0.10;;;0.10;;
13475;SDS011;6810;63.824;20.288;2024-01-11T12:26:30;0.43;;;0.20;;
13475;SDS011;6810;63.824;20.288;2024-01-11T12:29:20;0.30;;;0.10;;
13475;SDS011;6810;63.824;20.288;2024-01-11T12:32:21;0.10;;;0.10;;
13475;SDS011;6810;63.824;20.288;2024-01-11T12:34:49;0.97;;;0.10;;
13475;SDS011;6810;63.824;20.288;2024-01-11T12:37:16;0.40;;;0.10;;
13475;SDS011;6810;63.824;20.288;2024-01-11T12:39:43;0.40;;;0.30;;
13475;SDS011;6810;63.824;20.288;2024-01-11T12:42:10;0.37;;;0.10;;
13475;SDS011;6810;63.824;20.288;2024-01-11T12:44:37;0.30;;;0.20;;
13475;SDS011;6810;63.824;20.288;2024-01-11T12:47:25;0.80;;;0.10;;
13475;SDS011;6810;63.824;20.288;2024-01-11T12:50:12;0.83;;;0.10;;
13475;SDS011;6810;63.824;20.288;2024-01-11T12:53:07;0.20;;;0.20;;
13475;SDS011;6810;63.824;20.288;2024-01-11T12:56:02;0.50;;;0.23;;
13475;SDS011;6810;63.824;20.288;2024-01-11T12:58:51;0.60;;;0.20;;
13475;SDS011;6810;63.824;20.288;2024-01-11T13:01:51;0.50;;;0.20;;
13475;SDS011;6810;63.824;20.288;2024-01-11T13:04:38;1.00;;;0.20;;
13475;SDS011;6810;63.824;20.288;2024-01-11T13:07:25;0.47;;;0.30;;
13475;SDS011;6810;63.824;20.288;2024-01-11T13:10:12;0.30;;;0.20;;
13475;SDS011;6810;63.824;20.288;2024-01-11T13:12:59;0.30;;;0.20;;
13475;SDS011;6810;63.824;20.288;2024-01-11T13:15:46;0.20;;;0.20;;
13475;SDS011;6810;63.824;20.288;2024-01-11T13:18:33;0.93;;;0.30;;
13475;SDS011;6810;63.824;20.288;2024-01-11T13:21:19;0.57;;;0.37;;
13475;SDS011;6810;63.824;20.288;2024-01-11T13:24:06;0.70;;;0.40;;
13475;SDS011;6810;63.824;20.288;2024-01-11T13:26:56;1.50;;;0.50;;
13475;SDS011;6810;63.824;20.288;2024-01-11T13:29:43;0.70;;;0.40;;
13475;SDS011;6810;63.824;20.288;2024-01-11T13:32:30;1.37;;;0.53;;
13475;SDS011;6810;63.824;20.288;2024-01-11T13:35:17;0.33;;;0.30;;
13475;SDS011;6810;63.824;20.288;2024-01-11T13:38:04;0.47;;;0.37;;
13475;SDS011;6810;63.824;20.288;2024-01-11T13:40:52;0.70;;;0.40;;
13475;SDS011;6810;63.824;20.288;2024-01-11T13:43:39;0.30;;;0.30;;
13475;SDS011;6810;63.824;20.288;2024-01-11T13:46:26;0.70;;;0.30;;
13475;SDS011;6810;63.824;20.288;2024-01-11T13:49:12;0.70;;;0.40;;
13475;SDS011;6810;63.824;20.288;2024-01-11T13:51:40;1.03;;;0.23;;
13475;SDS011;6810;63.824;20.288;2024-01-11T13:54:27;1.30;;;0.37;;
13475;SDS011;6810;63.824;20.288;2024-01-11T13:57:14;0.50;;;0.27;;
13475;SDS011;6810;63.824;20.288;2024-01-11T14:00:01;0.70;;;0.30;;
13475;SDS011;6810;63.824;20.288;2024-01-11T14:02:49;2.13;;;0.30;;
13475;SDS011;6810;63.824;20.288;2024-01-11T14:05:36;0.40;;;0.40;;
13475;SDS011;6810;63.824;20.288;2024-01-11T14:08:24;0.70;;;0.30;;
13475;SDS011;6810;63.824;20.288;2024-01-11T14:11:11;0.70;;;0.33;;
13475;SDS011;6810;63.824;20.288;2024-01-11T14:13:58;0.63;;;0.30;;
13475;SDS011;6810;63.824;20.288;2024-01-11T14:16:46;0.77;;;0.40;;
13475;SDS011;6810;63.824;20.288;2024-01-11T14:19:33;1.00;;;0.57;;
13475;SDS011;6810;63.824;20.288;2024-01-11T14:22:20;1.07;;;0.60;;
13475;SDS011;6810;63.824;20.288;2024-01-11T14:25:07;0.87;;;0.53;;
13475;SDS011;6810;63.824;20.288;2024-01-11T14:27:55;2.53;;;0.50;;
13475;SDS011;6810;63.824;20.288;2024-01-11T14:30:41;2.77;;;0.57;;
13475;SDS011;6810;63.824;20.288;2024-01-11T14:33:29;0.40;;;0.40;;
13475;SDS011;6810;63.824;20.288;2024-01-11T14:36:16;1.27;;;0.33;;
13475;SDS011;6810;63.824;20.288;2024-01-11T14:39:03;0.60;;;0.50;;
13475;SDS011;6810;63.824;20.288;2024-01-11T14:41:50;1.17;;;0.70;;
13475;SDS011;6810;63.824;20.288;2024-01-11T14:44:38;1.47;;;0.60;;
13475;SDS011;6810;63.824;20.288;2024-01-11T14:47:25;0.70;;;0.30;;
13475;SDS011;6810;63.824;20.288;2024-01-11T14:50:12;0.27;;;0.27;;
13475;SDS011;6810;63.824;20.288;2024-01-11T14:52:59;0.97;;;0.50;;
13475;SDS011;6810;63.824;20.288;2024-01-11T14:55:46;0.77;;;0.40;;
13475;SDS011;6810;63.824;20.288;2024-01-11T14:58:33;2.63;;;0.40;;
13475;SDS011;6810;63.824;20.288;2024-01-11T15:01:20;2.27;;;0.50;;
13475;SDS011;6810;63.824;20.288;2024-01-11T15:04:07;2.10;;;0.40;;
13475;SDS011;6810;63.824;20.288;2024-01-11T15:06:54;0.63;;;0.50;;
13475;SDS011;6810;63.824;20.288;2024-01-11T15:09:40;0.53;;;0.30;;
13475;SDS011;6810;63.824;20.288;2024-01-11T15:12:27;0.80;;;0.50;;
13475;SDS011;6810;63.824;20.288;2024-01-11T15:15:14;1.53;;;0.50;;
13475;SDS011;6810;63.824;20.288;2024-01-11T15:18:04;1.03;;;0.60;;
13475;SDS011;6810;63.824;20.288;2024-01-11T15:20:51;1.27;;;0.47;;
13475;SDS011;6810;63.824;20.288;2024-01-11T15:23:38;0.93;;;0.30;;
13475;SDS011;6810;63.824;20.288;2024-01-11T15:26:25;0.67;;;0.33;;
13475;SDS011;6810;63.824;20.288;2024-01-11T15:29:13;0.50;;;0.50;;
13475;SDS011;6810;63.824;20.288;2024-01-11T15:32:00;0.83;;;0.50;;
13475;SDS011;6810;63.824;20.288;2024-01-11T15:34:47;1.03;;;0.60;;
13475;SDS011;6810;63.824;20.288;2024-01-11T15:37:34;1.30;;;0.30;;
13475;SDS011;6810;63.824;20.288;2024-01-11T15:40:21;1.03;;;0.40;;
13475;SDS011;6810;63.824;20.288;2024-01-11T15:43:08;0.53;;;0.30;;
13475;SDS011;6810;63.824;20.288;2024-01-11T15:45:55;0.90;;;0.40;;
13475;SDS011;6810;63.824;20.288;2024-01-11T15:48:42;1.53;;;0.50;;
13475;SDS011;6810;63.824;20.288;2024-01-11T15:51:29;0.60;;;0.37;;
13475;SDS011;6810;63.824;20.288;2024-01-11T15:54:16;1.87;;;0.80;;
13475;SDS011;6810;63.824;20.288;2024-01-11T15:57:03;0.57;;;0.40;;
13475;SDS011;6810;63.824;20.288;2024-01-11T15:59:50;1.27;;;0.70;;
13475;SDS011;6810;63.824;20.288;2024-01-11T16:02:38;1.23;;;0.50;;
13475;SDS011;6810;63.824;20.288;2024-01-11T16:05:25;1.13;;;0.50;;
13475;SDS011;6810;63.824;20.288;2024-01-11T16:08:12;0.97;;;0.60;;
13475;SDS011;6810;63.824;20.288;2024-01-11T16:10:59;1.23;;;0.70;;
13475;SDS011;6810;63.824;20.288;2024-01-11T16:13:46;2.00;;;0.60;;
13475;SDS011;6810;63.824;20.288;2024-01-11T16:16:33;0.80;;;0.80;;
13475;SDS011;6810;63.824;20.288;2024-01-11T16:19:20;1.00;;;0.70;;
13475;SDS011;6810;63.824;20.288;2024-01-11T16:22:07;0.90;;;0.60;;
13475;SDS011;6810;63.824;20.288;2024-01-11T16:24:54;1.47;;;0.77;;
13475;SDS011;6810;63.824;20.288;2024-01-11T16:27:41;0.60;;;0.60;;
13475;SDS011;6810;63.824;20.288;2024-01-11T16:30:28;1.37;;;0.73;;
13475;SDS011;6810;63.824;20.288;2024-01-11T16:33:15;3.07;;;0.80;;